Terminal Aerodrome Forecast
Issued by NWS

Home | Current Version | Previous Version | Text Only | Print | Product List | Glossary On
Versions: 1 2 3 4 5 6 7 8 9 10 11 12 13 14 15 16 17 18 19 20
000
FTUS45 KFGZ 040542
TAFPRC
TAF
KPRC 040542Z 0406/0506 20006KT P6SM SCT080
     FM041100 16007KT P6SM VCSH SCT045 BKN060
     FM041500 18009KT 6SM -SHRA BKN045 OVC070
     FM041600 19009KT 6SM -SHRA BKN040
      TEMPO 0417/0421 4SM -TSRA OVC030CB=

USA.gov is the U.S. government's official web portal to all federal, state and local government web resources and services.